Time;durP1;ratioP1;P1;durP2;ratioP2;P2;SDS_P1;SDS_P2;PMS_P1;PMS_P2;Temp;Humidity;BMP_temperature;BMP_pressure;BME280_temperature;BME280_humidity;BME280_pressure;Samples;Min_cycle;Max_cycle;Signal;HPM_P1;HPM_P2
2022/01/29 00:00:12;;;;;;;1.50;1.40;;;0.80;1.40;;;1.39;100.00;96927.03;619516;222;32063;-78
2022/01/29 00:03:00;;;;;;;1.40;1.05;;;0.80;1.40;;;1.36;100.00;96920.77;631539;222;32238;-77
2022/01/29 00:05:48;;;;;;;1.97;1.50;;;0.80;1.40;;;1.45;100.00;96921.33;646898;216;32165;-78
2022/01/29 00:08:29;;;;;;;1.10;1.00;;;0.90;1.40;;;1.46;100.00;96907.31;647877;216;33662;-78
2022/01/29 00:11:16;;;;;;;1.90;1.40;;;0.80;1.40;;;1.49;100.00;96896.55;645953;216;31538;-77
2022/01/29 00:13:56;;;;;;;1.30;1.20;;;0.90;1.40;;;1.48;100.00;96883.70;620742;222;31885;-78
2022/01/29 00:16:38;;;;;;;1.50;1.30;;;0.90;1.40;;;1.46;100.00;96875.73;646669;216;31538;-77
2022/01/29 00:19:21;;;;;;;2.20;1.40;;;0.90;1.40;;;1.40;100.00;96884.22;617244;222;31872;-77
2022/01/29 00:22:06;;;;;;;1.65;1.55;;;0.90;1.40;;;1.47;100.00;96874.57;647102;212;31584;-74
2022/01/29 00:24:56;;;;;;;1.20;1.10;;;0.90;1.40;;;1.49;100.00;96868.59;647272;216;31580;-78
2022/01/29 00:27:36;;;;;;;1.60;0.80;;;1.00;1.40;;;1.60;100.00;96860.98;647139;212;31538;-77
2022/01/29 00:30:18;;;;;;;1.80;1.10;;;1.00;1.40;;;1.50;100.00;96854.34;618841;222;31895;-77
2022/01/29 00:32:59;;;;;;;1.50;1.00;;;1.00;1.40;;;1.49;100.00;96850.22;647272;216;31998;-77
2022/01/29 00:35:57;;;;;;;1.50;0.80;;;0.90;1.40;;;1.47;100.00;96850.59;645263;216;31578;-78
2022/01/29 00:38:40;;;;;;;1.50;1.35;;;0.90;1.40;;;1.44;100.00;96830.88;647750;216;31710;-77
2022/01/29 00:41:22;;;;;;;0.82;0.82;;;0.90;1.40;;;1.38;100.00;96848.59;646338;216;42784;-78
2022/01/29 00:44:04;;;;;;;3.33;1.87;;;0.90;1.40;;;1.39;100.00;96846.34;619416;226;32575;-77
2022/01/29 00:46:46;;;;;;;1.50;1.40;;;0.70;1.40;;;1.29;100.00;96850.86;647508;212;31916;-78
2022/01/29 00:49:27;;;;;;;3.25;1.23;;;0.60;1.40;;;1.13;100.00;96843.56;646503;216;31749;-77
2022/01/29 00:52:15;;;;;;;0.90;0.80;;;0.50;1.40;;;1.05;100.00;96836.98;618498;226;31997;-75
2022/01/29 00:54:57;;;;;;;1.60;1.35;;;0.50;1.40;;;1.07;100.00;96836.58;619973;222;31913;-75
2022/01/29 00:57:45;;;;;;;1.00;1.00;;;0.50;1.40;;;1.01;100.00;96836.29;642169;216;31507;-78
2022/01/29 01:00:26;;;;;;;0.70;0.70;;;0.30;1.40;;;0.91;100.00;96842.88;646677;216;31578;-77
2022/01/29 01:03:08;;;;;;;1.17;1.08;;;0.30;1.40;;;0.88;100.00;96830.87;646655;213;42178;-77
2022/01/29 01:05:51;;;;;;;0.93;0.93;;;0.30;1.40;;;0.86;100.00;96828.95;616060;226;32630;-77
2022/01/29 01:08:33;;;;;;;1.40;1.10;;;0.20;1.40;;;0.85;100.00;96827.33;645736;212;31497;-77
2022/01/29 01:11:14;;;;;;;1.30;1.20;;;0.30;1.40;;;0.90;100.00;96829.87;646947;216;31555;-77
2022/01/29 01:13:56;;;;;;;1.52;1.42;;;0.20;1.40;;;0.87;100.00;96824.89;646599;212;31551;-77
2022/01/29 01:16:38;;;;;;;1.80;1.50;;;0.30;1.40;;;0.84;100.00;96820.16;646215;216;31524;-77
2022/01/29 01:19:25;;;;;;;1.23;1.05;;;0.30;1.40;;;0.89;100.00;96808.58;646047;216;31594;-77
2022/01/29 01:22:03;;;;;;;1.90;1.20;;;0.20;1.40;;;0.90;100.00;96804.56;646500;212;31559;-77
2022/01/29 01:24:51;;;;;;;0.90;0.73;;;0.20;1.40;;;0.88;100.00;96800.98;620944;222;31852;-77
2022/01/29 01:27:33;;;;;;;1.70;1.60;;;0.30;1.40;;;0.94;100.00;96797.05;647465;212;31487;-77
2022/01/29 01:30:14;;;;;;;1.40;1.30;;;0.30;1.40;;;0.96;100.00;96792.70;648030;216;32106;-78
2022/01/29 01:32:56;;;;;;;1.17;1.08;;;0.30;1.40;;;1.02;100.00;96788.97;646786;216;31642;-76
2022/01/29 01:35:54;;;;;;;2.97;1.70;;;0.40;1.40;;;1.02;100.00;96783.97;643463;216;31578;-77
2022/01/29 01:38:40;;;;;;;0.70;0.70;;;0.50;1.40;;;1.10;100.00;96772.27;646979;216;31542;-77
2022/01/29 01:41:17;;;;;;;1.00;0.90;;;0.50;1.40;;;1.13;100.00;96776.27;646496;216;31567;-78
2022/01/29 01:44:01;;;;;;;0.80;0.60;;;0.50;1.40;;;1.13;100.00;96773.68;646232;216;31517;-78
2022/01/29 01:46:42;;;;;;;1.10;0.80;;;0.50;1.40;;;1.08;100.00;96770.37;648075;216;42140;-77
2022/01/29 01:49:24;;;;;;;1.05;0.98;;;0.50;1.40;;;1.09;100.00;96765.25;648533;212;31636;-76
2022/01/29 01:52:06;;;;;;;1.80;1.30;;;0.50;1.40;;;1.05;100.00;96752.36;619034;222;32830;-75
2022/01/29 01:54:51;;;;;;;1.05;1.05;;;0.50;1.40;;;1.05;100.00;96752.77;646284;216;32168;-77
2022/01/29 01:57:32;;;;;;;1.50;1.40;;;0.40;1.40;;;1.12;100.00;96748.92;647696;216;32044;-78
2022/01/29 02:02:50;;;;;;;1.10;1.00;;;0.40;1.40;;;1.07;100.00;96746.55;647374;216;42135;-77
2022/01/29 02:05:32;;;;;;;1.80;1.62;;;0.40;1.40;;;1.09;100.00;96733.52;618874;226;32066;-77
2022/01/29 02:08:18;;;;;;;1.75;1.60;;;0.50;1.40;;;1.07;100.00;96726.23;646574;216;32403;-77
2022/01/29 02:11:04;;;;;;;3.00;1.40;;;0.50;1.40;;;1.08;100.00;96718.92;646320;212;31541;-75
2022/01/29 02:13:48;;;;;;;0.75;0.75;;;0.60;1.40;;;1.16;100.00;96717.90;645843;216;31610;-77
2022/01/29 02:16:31;;;;;;;1.40;1.30;;;0.60;1.40;;;1.25;100.00;96715.69;647242;216;31580;-78
2022/01/29 02:19:11;;;;;;;1.15;1.05;;;0.50;1.40;;;1.19;100.00;96704.38;647043;216;31687;-77
2022/01/29 02:21:52;;;;;;;2.90;1.25;;;0.50;1.40;;;1.19;100.00;96700.25;647008;216;31705;-77
2022/01/29 02:24:36;;;;;;;1.75;1.65;;;0.50;1.40;;;1.20;100.00;96694.58;619234;226;32110;-78
2022/01/29 02:27:17;;;;;;;1.70;1.23;;;0.60;1.40;;;1.19;100.00;96692.95;646545;216;31587;-78
2022/01/29 02:30:06;;;;;;;1.58;1.33;;;0.60;1.40;;;1.17;100.00;96685.63;645942;212;32261;-75
2022/01/29 02:32:54;;;;;;;1.70;1.60;;;0.60;1.40;;;1.17;100.00;96680.63;641902;215;31557;-78
2022/01/29 02:35:57;;;;;;;1.58;1.10;;;0.60;1.40;;;1.26;100.00;96689.72;647668;216;31584;-75
2022/01/29 02:38:44;;;;;;;1.08;1.08;;;0.50;1.40;;;1.17;100.00;96682.77;647800;216;32136;-77
2022/01/29 02:41:27;;;;;;;1.20;1.10;;;0.50;1.40;;;1.15;100.00;96688.69;619131;222;32783;-78
2022/01/29 02:44:16;;;;;;;1.45;1.17;;;0.50;1.40;;;1.15;100.00;96685.16;647226;212;32765;-74
2022/01/29 02:47:25;;;;;;;1.70;1.30;;;0.40;1.40;;;1.06;100.00;96687.59;616336;224;43555;-77
2022/01/29 02:49:48;;;;;;;1.70;1.60;;;0.40;1.40;;;1.12;100.00;96686.91;647772;216;31545;-75
2022/01/29 02:52:29;;;;;;;1.40;1.30;;;0.40;1.40;;;1.10;100.00;96694.56;647417;216;31528;-74
2022/01/29 02:55:13;;;;;;;2.00;1.30;;;0.40;1.40;;;1.07;100.00;96690.67;646799;212;31594;-77
2022/01/29 02:57:54;;;;;;;3.95;1.62;;;0.40;1.40;;;1.02;100.00;96684.04;646569;216;31634;-76
2022/01/29 03:00:36;;;;;;;1.40;1.20;;;0.40;1.40;;;1.06;100.00;96689.78;647294;216;31603;-77
2022/01/29 03:03:18;;;;;;;0.80;0.80;;;0.40;1.40;;;1.08;100.00;96687.02;646767;216;32099;-77
2022/01/29 03:06:02;;;;;;;0.80;0.80;;;0.50;1.40;;;1.12;100.00;96691.27;619453;222;32970;-78
2022/01/29 03:08:41;;;;;;;1.00;0.95;;;0.50;1.40;;;1.14;100.00;96689.50;648316;216;31539;-78
2022/01/29 03:11:23;;;;;;;1.60;0.87;;;0.60;1.40;;;1.18;100.00;96682.64;619518;226;31882;-77
2022/01/29 03:14:06;;;;;;;0.90;0.80;;;0.70;1.40;;;1.20;100.00;96672.27;646630;212;31750;-78
2022/01/29 03:16:49;;;;;;;1.30;1.20;;;0.70;1.40;;;1.19;100.00;96665.93;646953;213;31515;-74
2022/01/29 03:19:37;;;;;;;1.30;0.62;;;0.60;1.40;;;1.18;100.00;96661.81;646908;216;31916;-77
2022/01/29 03:22:19;;;;;;;1.87;1.40;;;0.60;1.40;;;1.23;100.00;96654.30;646403;216;31518;-77
2022/01/29 03:25:07;;;;;;;0.80;0.68;;;0.60;1.40;;;1.25;100.00;96657.13;647494;216;31603;-77
2022/01/29 03:27:54;;;;;;;1.30;1.10;;;0.70;1.40;;;1.19;100.00;96655.97;646374;212;31636;-77
2022/01/29 03:30:36;;;;;;;0.90;0.70;;;0.70;1.40;;;1.21;100.00;96654.98;620337;226;32506;-77
2022/01/29 03:35:51;;;;;;;1.70;1.25;;;0.60;1.40;;;1.06;100.00;96642.58;620775;222;31919;-77
2022/01/29 03:38:32;;;;;;;1.80;1.12;;;0.50;1.40;;;1.05;100.00;96652.11;647081;212;31516;-77
2022/01/29 03:41:15;;;;;;;1.30;0.90;;;0.60;1.40;;;1.11;100.00;96643.34;647585;216;31548;-77
2022/01/29 03:44:02;;;;;;;2.20;1.00;;;0.70;1.40;;;1.15;100.00;96641.86;618733;222;31859;-77
2022/01/29 03:46:38;;;;;;;0.80;0.80;;;0.70;1.40;;;1.09;100.00;96644.39;647903;216;31548;-77
2022/01/29 03:49:20;;;;;;;1.10;0.80;;;0.60;1.40;;;1.09;100.00;96635.16;646596;212;31560;-77
2022/01/29 03:52:02;;;;;;;1.27;1.10;;;0.60;1.40;;;1.03;100.00;96629.31;646165;212;31653;-77
2022/01/29 03:54:44;;;;;;;1.50;0.93;;;0.60;1.40;;;1.09;100.00;96620.90;633329;216;32226;-77
2022/01/29 03:57:25;;;;;;;1.75;0.68;;;0.60;1.40;;;1.07;100.00;96622.75;647195;212;31585;-78
2022/01/29 04:00:08;;;;;;;1.05;0.95;;;0.60;1.40;;;1.07;100.00;96621.95;646329;212;31563;-77
2022/01/29 04:02:49;;;;;;;1.05;0.95;;;0.60;1.40;;;1.09;100.00;96603.98;647778;216;31504;-77
2022/01/29 04:05:37;;;;;;;1.10;0.82;;;0.70;1.40;;;1.24;100.00;96608.62;619244;226;42516;-75
2022/01/29 04:08:25;;;;;;;0.93;0.93;;;0.70;1.40;;;1.19;100.00;96602.29;646333;216;31566;-77
2022/01/29 04:11:11;;;;;;;1.10;1.00;;;0.70;1.40;;;1.20;100.00;96612.53;646991;216;32138;-77
2022/01/29 04:13:51;;;;;;;0.70;0.60;;;0.80;1.40;;;1.25;100.00;96616.55;645474;216;31566;-77
2022/01/29 04:16:33;;;;;;;1.60;0.90;;;0.80;1.40;;;1.20;100.00;96611.53;646965;216;31486;-77
2022/01/29 04:21:51;;;;;;;0.98;0.80;;;0.70;1.40;;;1.20;100.00;96596.95;646688;216;42182;-77
2022/01/29 04:24:33;;;;;;;1.00;0.90;;;0.70;1.40;;;1.24;100.00;96598.78;646182;216;31490;-77
2022/01/29 04:27:18;;;;;;;1.20;1.10;;;0.70;1.40;;;1.28;100.00;96581.44;620561;226;31918;-77
2022/01/29 04:29:59;;;;;;;2.50;1.35;;;0.70;1.40;;;1.28;100.00;96583.68;645910;216;31829;-77
2022/01/29 04:35:58;;;;;;;0.80;0.60;;;0.70;1.40;;;1.17;100.00;96577.77;647650;216;31601;-78
2022/01/29 04:38:45;;;;;;;0.90;0.70;;;0.70;1.40;;;1.16;100.00;96580.72;646681;216;42144;-77
2022/01/29 04:41:27;;;;;;;1.10;1.02;;;0.60;1.40;;;1.16;100.00;96585.81;648407;216;31530;-75
2022/01/29 04:44:09;;;;;;;2.45;1.30;;;0.60;1.40;;;1.15;100.00;96591.81;618646;222;31850;-76
2022/01/29 04:46:52;;;;;;;3.75;0.93;;;0.60;1.40;;;1.16;100.00;96595.30;646378;216;31585;-77
2022/01/29 04:49:34;;;;;;;0.87;0.80;;;0.70;1.40;;;1.25;100.00;96592.36;647004;216;31570;-77
2022/01/29 04:52:22;;;;;;;2.55;1.15;;;0.80;1.40;;;1.15;100.00;96591.59;646981;216;42184;-73
2022/01/29 04:55:04;;;;;;;0.80;0.70;;;0.70;1.40;;;1.27;100.00;96589.75;647143;216;32202;-74
2022/01/29 04:57:48;;;;;;;0.90;0.80;;;0.70;1.40;;;1.20;100.00;96590.97;647613;216;31556;-77
2022/01/29 05:00:29;;;;;;;1.50;1.17;;;0.70;1.40;;;1.26;100.00;96595.63;646298;212;31767;-77
2022/01/29 05:03:11;;;;;;;1.10;1.00;;;0.70;1.40;;;1.21;100.00;96592.88;647834;212;31593;-77
2022/01/29 05:05:53;;;;;;;1.50;1.30;;;0.70;1.40;;;1.14;100.00;96594.13;644199;216;31777;-77
2022/01/29 05:08:34;;;;;;;1.45;1.33;;;0.70;1.40;;;1.21;100.00;96591.59;647225;212;32183;-77
2022/01/29 05:11:17;;;;;;;1.27;1.17;;;0.70;1.40;;;1.17;100.00;96581.31;647614;216;31566;-77
2022/01/29 05:14:01;;;;;;;2.15;1.87;;;0.70;1.40;;;1.18;100.00;96581.44;647135;216;31492;-75
2022/01/29 05:28:08;;;;;;;1.33;1.15;;;0.50;1.40;;;1.15;100.00;96573.87;647437;216;42200;-77
2022/01/29 05:30:50;;;;;;;1.40;1.30;;;0.60;1.40;;;1.13;100.00;96578.82;647948;216;31553;-77
2022/01/29 05:35:51;;;;;;;1.60;1.48;;;0.50;1.40;;;0.99;100.00;96571.33;647628;216;31565;-76
2022/01/29 05:38:32;;;;;;;1.35;1.25;;;0.40;1.40;;;0.99;100.00;96557.94;647280;216;31574;-77
2022/01/29 05:41:20;;;;;;;1.98;1.50;;;0.50;1.40;;;1.01;100.00;96554.84;646962;216;31905;-74
2022/01/29 05:44:02;;;;;;;2.47;1.40;;;0.40;1.40;;;0.89;100.00;96559.18;647050;212;31974;-75
2022/01/29 05:46:49;;;;;;;1.85;1.62;;;0.40;1.40;;;0.88;100.00;96555.09;618758;222;31960;-76
2022/01/29 05:49:31;;;;;;;2.65;1.15;;;0.40;1.40;;;0.96;100.00;96556.75;647318;216;43849;-77
2022/01/29 05:52:13;;;;;;;3.33;0.93;;;0.40;1.40;;;1.03;100.00;96554.50;648872;216;31597;-76
2022/01/29 05:54:54;;;;;;;1.05;0.75;;;0.40;1.40;;;1.03;100.00;96549.16;645749;216;31640;-77
2022/01/29 05:57:36;;;;;;;1.20;1.10;;;0.50;1.40;;;1.06;100.00;96552.39;648058;216;32119;-77
2022/01/29 06:00:18;;;;;;;2.80;1.30;;;0.60;1.40;;;1.11;100.00;96551.06;647174;216;31735;-77
2022/01/29 06:03:05;;;;;;;2.03;1.33;;;0.60;1.40;;;1.15;100.00;96552.62;647595;216;31581;-77
2022/01/29 06:05:49;;;;;;;1.90;1.60;;;0.70;1.40;;;1.26;100.00;96549.16;619320;226;32026;-74
2022/01/29 06:08:36;;;;;;;1.10;0.85;;;0.70;1.40;;;1.33;100.00;96548.30;646788;212;31572;-77
2022/01/29 06:11:21;;;;;;;0.90;0.90;;;0.80;1.40;;;1.35;100.00;96549.59;646486;216;31761;-77
2022/01/29 06:14:01;;;;;;;0.93;0.82;;;0.90;1.40;;;1.43;100.00;96544.92;646234;212;31779;-76
2022/01/29 06:16:42;;;;;;;1.70;1.40;;;1.00;1.40;;;1.47;100.00;96547.70;647649;212;31587;-77
2022/01/29 06:19:27;;;;;;;2.20;1.42;;;1.00;1.40;;;1.53;100.00;96546.64;647441;216;31578;-77
2022/01/29 06:22:15;;;;;;;3.00;1.27;;;1.10;1.40;;;1.57;100.00;96555.86;644872;212;31550;-75
2022/01/29 06:24:58;;;;;;;0.90;0.90;;;1.10;1.40;;;1.59;100.00;96558.59;647308;216;31522;-76
2022/01/29 06:27:40;;;;;;;3.20;1.20;;;1.00;1.40;;;1.60;100.00;96559.64;647357;212;31508;-77
2022/01/29 06:30:22;;;;;;;0.95;0.90;;;1.10;1.40;;;1.69;100.00;96555.72;618892;226;31881;-76
2022/01/29 06:38:35;;;;;;;0.50;0.50;;;1.20;1.40;;;1.81;100.00;96536.84;646560;212;31744;-77
2022/01/29 06:41:17;;;;;;;1.10;0.90;;;1.20;1.40;;;1.88;100.00;96534.88;647312;216;32273;-77
2022/01/29 06:43:58;;;;;;;1.50;0.80;;;1.50;1.40;;;1.96;100.00;96527.08;619759;226;32461;-77
2022/01/29 06:46:49;;;;;;;1.85;0.80;;;1.50;1.40;;;2.05;100.00;96527.41;647652;216;32234;-74
2022/01/29 06:49:37;;;;;;;0.90;0.90;;;1.60;1.40;;;2.08;100.00;96554.14;631790;222;31790;-77
2022/01/29 06:52:18;;;;;;;0.80;0.80;;;1.60;1.40;;;2.12;100.00;96555.13;646461;216;31599;-76
2022/01/29 06:55:03;;;;;;;1.27;1.17;;;1.50;1.40;;;1.97;100.00;96556.65;618892;226;31856;-76
2022/01/29 06:57:45;;;;;;;0.50;0.50;;;1.40;1.40;;;1.98;100.00;96554.69;619457;226;32126;-77
2022/01/29 07:00:27;;;;;;;0.65;0.52;;;1.40;1.40;;;2.04;100.00;96544.53;647184;212;31768;-77
2022/01/29 07:03:14;;;;;;;0.70;0.70;;;1.60;1.40;;;2.22;100.00;96543.53;646335;216;31560;-74
2022/01/29 07:05:56;;;;;;;0.73;0.57;;;1.80;1.40;;;2.28;100.00;96544.38;619044;226;31896;-77
2022/01/29 07:08:44;;;;;;;0.90;0.70;;;1.90;1.40;;;2.29;100.00;96535.19;646458;216;31664;-76
2022/01/29 07:11:25;;;;;;;1.20;1.10;;;1.80;1.40;;;2.31;100.00;96529.80;646958;216;31820;-77
2022/01/29 07:14:07;;;;;;;1.10;1.10;;;1.80;1.40;;;2.34;100.00;96520.02;647109;212;32764;-77
2022/01/29 07:16:50;;;;;;;1.10;0.90;;;1.80;1.40;;;2.37;100.00;96508.13;619477;226;31852;-77
2022/01/29 07:19:32;;;;;;;1.12;0.95;;;1.80;1.40;;;2.32;100.00;96494.53;646376;216;31841;-77
2022/01/29 07:22:13;;;;;;;0.93;0.70;;;1.80;1.40;;;2.36;100.00;96495.69;647439;212;42165;-77
2022/01/29 07:24:55;;;;;;;2.42;1.00;;;1.80;1.40;;;2.41;100.00;96503.89;646640;216;31577;-77
2022/01/29 07:27:37;;;;;;;1.50;0.90;;;1.80;1.40;;;2.32;100.00;96499.21;647009;212;31862;-77
2022/01/29 07:30:19;;;;;;;1.40;0.60;;;1.80;1.40;;;2.33;100.00;96493.52;646465;212;31502;-77
2022/01/29 07:33:00;;;;;;;0.50;0.50;;;1.90;1.40;;;2.46;100.00;96508.70;647887;216;31865;-77
2022/01/29 07:35:54;;;;;;;0.88;0.60;;;1.90;1.40;;;2.58;100.00;96513.64;618941;226;42632;-77
2022/01/29 07:38:35;;;;;;;0.90;0.90;;;2.10;1.40;;;2.76;100.00;96521.19;646988;212;31463;-77
2022/01/29 07:41:17;;;;;;;0.80;0.80;;;2.20;1.40;;;2.73;100.00;96513.72;647025;216;32025;-76
2022/01/29 07:44:02;;;;;;;1.10;1.00;;;2.30;1.40;;;2.78;100.00;96519.26;646613;216;31579;-76
2022/01/29 07:46:44;;;;;;;1.00;0.80;;;2.30;1.40;;;2.85;100.00;96526.05;646975;215;31529;-77
2022/01/29 07:49:26;;;;;;;0.88;0.77;;;2.40;1.40;;;2.84;100.00;96519.48;647921;216;31501;-77
2022/01/29 07:52:07;;;;;;;1.30;1.00;;;2.40;1.40;;;2.87;100.00;96515.22;619101;226;31856;-78
2022/01/29 07:54:49;;;;;;;0.75;0.68;;;2.30;1.40;;;2.89;100.00;96515.86;643435;213;31754;-78
2022/01/29 07:57:31;;;;;;;1.08;0.88;;;2.30;1.40;;;2.92;100.00;96516.64;646708;216;31881;-79
2022/01/29 08:00:13;;;;;;;0.70;0.60;;;2.30;1.40;;;2.93;100.00;96516.72;647815;216;31474;-78
2022/01/29 08:03:04;;;;;;;1.20;0.60;;;2.30;1.40;;;3.00;100.00;96519.17;646359;216;31762;-78
2022/01/29 08:05:52;;;;;;;1.52;0.80;;;2.40;1.40;;;3.20;100.00;96512.73;630784;221;31686;-79
2022/01/29 08:08:40;;;;;;;1.10;0.77;;;2.50;1.40;;;3.16;100.00;96505.58;646726;216;31536;-75
2022/01/29 08:11:27;;;;;;;0.70;0.40;;;2.60;1.40;;;3.24;100.00;96517.05;647000;216;31622;-78
2022/01/29 08:14:15;;;;;;;1.20;0.90;;;2.60;1.40;;;3.28;100.00;96510.94;646743;216;31549;-75
2022/01/29 08:17:03;;;;;;;0.88;0.65;;;2.60;1.40;;;3.36;100.00;96524.53;645998;216;31502;-78
2022/01/29 08:19:45;;;;;;;0.65;0.65;;;2.70;1.40;;;3.31;100.00;96535.91;648462;212;31540;-78
2022/01/29 08:22:26;;;;;;;0.70;0.65;;;2.70;1.40;;;3.33;100.00;96529.80;647242;216;31503;-78
2022/01/29 08:25:08;;;;;;;0.88;0.88;;;2.70;1.40;;;3.42;100.00;96532.34;646908;212;31529;-79
2022/01/29 08:27:52;;;;;;;0.90;0.68;;;2.70;1.40;;;3.48;100.00;96528.41;647026;216;32159;-77
2022/01/29 08:30:36;;;;;;;1.35;1.10;;;2.70;1.40;;;3.42;100.00;96520.39;648618;216;31527;-77
2022/01/29 08:35:58;;;;;;;0.60;0.60;;;2.70;1.40;;;3.46;100.00;96499.25;646535;216;31554;-76
2022/01/29 08:38:45;;;;;;;1.08;0.90;;;2.80;1.40;;;3.58;100.00;96486.58;646158;216;31509;-79
2022/01/29 08:41:27;;;;;;;3.90;1.00;;;2.90;1.40;;;3.62;100.00;96486.92;648780;216;31529;-78
2022/01/29 08:44:09;;;;;;;1.05;0.70;;;2.90;1.40;;;3.64;100.00;96484.78;646707;215;31591;-78
2022/01/29 08:46:51;;;;;;;1.37;1.00;;;2.90;1.40;;;3.68;100.00;96483.78;647549;212;32098;-78
2022/01/29 08:49:40;;;;;;;0.80;0.80;;;3.00;1.40;;;3.62;100.00;96483.45;647532;212;31535;-76
2022/01/29 08:52:21;;;;;;;0.60;0.50;;;3.10;1.40;;;3.67;100.00;96476.62;646624;212;31560;-74
2022/01/29 08:55:05;;;;;;;0.85;0.50;;;3.10;1.40;;;3.73;100.00;96475.56;646144;212;31557;-78
2022/01/29 08:57:49;;;;;;;0.80;0.60;;;3.20;1.40;;;3.80;99.19;96484.41;647417;212;31500;-77
2022/01/29 09:00:32;;;;;;;1.30;0.60;;;3.30;1.40;;;3.90;94.49;96484.64;620193;226;31852;-79
2022/01/29 09:03:20;;;;;;;0.50;0.50;;;3.40;1.40;;;3.94;93.71;96482.99;645499;216;31674;-76
2022/01/29 09:06:06;;;;;;;0.80;0.60;;;3.50;1.40;;;4.01;90.44;96475.69;645261;216;31763;-77
2022/01/29 09:08:51;;;;;;;0.60;0.50;;;3.60;1.40;;;4.02;93.37;96474.20;645233;216;31500;-75
2022/01/29 09:11:30;;;;;;;1.02;0.52;;;3.50;1.40;;;4.08;92.01;96471.70;647174;216;31598;-74
2022/01/29 09:14:12;;;;;;;0.70;0.50;;;3.60;1.40;;;4.25;90.59;96474.20;646120;216;31533;-76
2022/01/29 09:17:23;;;;;;;0.73;0.50;;;3.70;1.40;;;4.30;90.84;96471.80;647994;216;31498;-76
2022/01/29 09:20:09;;;;;;;0.60;0.60;;;3.80;1.40;;;4.44;89.28;96475.02;645366;216;31527;-77
2022/01/29 09:22:51;;;;;;;0.50;0.40;;;3.80;1.40;;;4.48;87.80;96471.84;618833;226;32448;-76
2022/01/29 09:25:35;;;;;;;1.00;0.50;;;3.90;1.40;;;4.51;87.71;96469.38;646446;212;31601;-76
2022/01/29 09:28:14;;;;;;;1.00;0.60;;;3.90;1.40;;;4.60;88.16;96463.84;646720;212;31505;-75
2022/01/29 09:30:56;;;;;;;0.62;0.47;;;3.90;1.40;;;4.63;86.67;96447.78;618517;225;31978;-77
2022/01/29 09:35:54;;;;;;;0.60;0.40;;;4.10;1.40;;;4.55;84.86;96456.19;619297;222;32243;-75
2022/01/29 09:38:36;;;;;;;1.60;0.60;;;4.20;1.40;;;4.67;83.64;96462.06;648119;212;32111;-76
2022/01/29 09:41:18;;;;;;;0.50;0.50;;;4.20;1.40;;;4.75;79.51;96466.27;647248;216;31540;-78
2022/01/29 09:44:00;;;;;;;0.70;0.40;;;4.40;1.40;;;4.79;79.74;96471.06;647199;212;31532;-75
2022/01/29 09:46:44;;;;;;;0.73;0.47;;;4.40;1.40;;;4.94;76.32;96474.05;645545;212;31507;-75
2022/01/29 09:49:24;;;;;;;1.00;0.60;;;4.50;1.40;;;4.93;76.51;96468.86;647355;216;31537;-77
2022/01/29 09:52:06;;;;;;;0.50;0.30;;;4.60;1.40;;;5.03;72.87;96460.67;647166;216;31517;-77
2022/01/29 09:54:48;;;;;;;0.40;0.40;;;4.70;1.40;;;5.15;71.85;96456.67;645837;216;32079;-74
2022/01/29 09:57:30;;;;;;;0.40;0.30;;;4.80;1.40;;;5.15;72.82;96455.06;647089;212;32033;-74
2022/01/29 10:00:15;;;;;;;0.65;0.40;;;4.80;1.40;;;5.23;72.09;96463.59;647152;216;31506;-79
2022/01/29 10:03:19;;;;;;;0.40;0.30;;;4.80;1.40;;;5.26;70.49;96459.02;646512;216;31580;-77
2022/01/29 10:06:01;;;;;;;0.40;0.28;;;4.90;1.40;;;5.27;68.92;96466.30;645242;216;31528;-77
2022/01/29 10:08:41;;;;;;;0.75;0.32;;;4.90;1.40;;;5.30;66.33;96477.84;646891;216;31517;-76
2022/01/29 10:11:23;;;;;;;0.60;0.30;;;5.00;1.40;;;5.35;67.24;96475.66;646827;212;31483;-76
2022/01/29 10:14:05;;;;;;;0.40;0.30;;;4.90;1.40;;;5.24;67.73;96473.61;646954;212;31610;-77
2022/01/29 10:16:47;;;;;;;0.60;0.30;;;4.90;1.40;;;5.34;65.09;96479.52;646244;216;31688;-77
2022/01/29 10:19:28;;;;;;;0.40;0.20;;;5.00;1.40;;;5.26;67.32;96480.09;646857;216;32113;-75
2022/01/29 10:22:16;;;;;;;0.40;0.30;;;4.90;1.40;;;5.35;65.03;96483.61;646204;216;31514;-78
2022/01/29 10:25:04;;;;;;;0.50;0.30;;;5.00;1.40;;;5.30;67.30;96474.30;645372;216;31498;-77
2022/01/29 10:28:09;;;;;;;0.40;0.40;;;4.90;1.40;;;5.40;66.81;96485.72;616172;224;31854;-79
2022/01/29 10:30:57;;;;;;;0.40;0.20;;;4.90;1.40;;;5.36;65.65;96492.39;620744;222;31852;-75
2022/01/29 10:35:52;;;;;;;0.40;0.30;;;5.00;1.40;;;5.47;63.97;96497.81;646969;216;31498;-75
2022/01/29 10:38:51;;;;;;;0.40;0.30;;;5.10;1.40;;;5.50;63.50;96495.33;621813;226;31992;-79
2022/01/29 10:41:38;;;;;;;0.40;0.20;;;5.10;1.40;;;5.48;67.59;96498.47;646280;216;31777;-77
2022/01/29 10:44:22;;;;;;;0.40;0.30;;;5.00;1.40;;;5.51;64.50;96501.09;646536;212;31497;-76
2022/01/29 10:47:06;;;;;;;0.50;0.30;;;5.10;1.40;;;5.49;65.22;96490.16;646588;216;31507;-75
2022/01/29 10:50:02;;;;;;;0.40;0.30;;;5.10;1.40;;;5.59;61.48;96486.55;647518;216;31645;-75
2022/01/29 10:52:42;;;;;;;1.10;0.30;;;5.20;1.40;;;5.61;61.85;96480.56;647404;216;31535;-76
2022/01/29 10:55:24;;;;;;;0.40;0.20;;;5.30;1.40;;;5.58;61.53;96478.98;646647;216;31505;-74
2022/01/29 10:58:21;;;;;;;0.40;0.30;;;5.40;1.40;;;5.61;63.27;96472.97;647319;216;31598;-78
2022/01/29 11:01:13;;;;;;;0.60;0.30;;;5.30;1.40;;;5.63;62.63;96463.64;649404;212;31456;-75
2022/01/29 11:03:58;;;;;;;1.80;0.40;;;5.30;1.40;;;5.77;62.20;96457.52;647429;212;31466;-74
2022/01/29 11:06:44;;;;;;;0.52;0.28;;;5.50;1.40;;;5.88;62.14;96453.02;649540;212;42487;-78
2022/01/29 11:09:25;;;;;;;1.30;0.30;;;5.50;1.40;;;5.91;63.42;96448.14;618987;225;31832;-75
2022/01/29 11:12:10;;;;;;;0.50;0.40;;;5.50;1.40;;;6.11;62.97;96444.80;645921;216;32073;-76
2022/01/29 11:14:53;;;;;;;0.40;0.32;;;5.70;1.40;;;6.28;62.15;96441.95;646808;212;31972;-75
2022/01/29 11:17:36;;;;;;;0.55;0.20;;;6.00;1.40;;;6.33;59.88;96424.73;646828;216;31526;-76
2022/01/29 11:20:18;;;;;;;0.40;0.20;;;6.00;1.40;;;6.58;57.51;96415.70;633308;216;32283;-78
2022/01/29 11:23:02;;;;;;;0.60;0.30;;;6.30;1.40;;;6.62;57.89;96415.30;646142;216;31488;-74
2022/01/29 11:25:45;;;;;;;0.40;0.30;;;6.50;1.40;;;6.82;57.64;96395.52;619430;222;32556;-78
2022/01/29 11:28:34;;;;;;;0.40;0.30;;;6.60;1.40;;;6.93;58.10;96406.73;646940;216;31588;-75
2022/01/29 11:31:18;;;;;;;0.70;0.30;;;6.70;1.40;;;6.86;57.13;96407.08;645965;216;32918;-77
2022/01/29 11:35:57;;;;;;;0.40;0.30;;;6.70;1.40;;;7.08;56.78;96411.08;647599;216;31508;-77
2022/01/29 11:38:39;;;;;;;0.30;0.30;;;6.60;1.40;;;7.04;55.65;96406.33;653158;216;23965;-78
2022/01/29 11:41:23;;;;;;;0.80;0.30;;;6.80;1.40;;;7.24;55.30;96407.14;645444;212;31943;-75
2022/01/29 11:44:24;;;;;;;0.40;0.20;;;7.00;1.40;;;7.33;54.78;96405.08;646836;216;31568;-77
2022/01/29 11:47:38;;;;;;;0.68;0.37;;;7.00;1.40;;;7.09;55.00;96405.27;646348;212;31467;-76
2022/01/29 11:50:37;;;;;;;0.70;0.40;;;7.30;1.40;;;7.89;53.69;96405.17;647571;212;31611;-76
2022/01/29 11:53:21;;;;;;;0.40;0.40;;;7.90;1.40;;;8.66;50.82;96383.52;643410;215;31534;-78
2022/01/29 11:56:08;;;;;;;0.47;0.30;;;8.80;1.40;;;9.29;48.74;96388.22;645767;216;31613;-76
2022/01/29 11:58:50;;;;;;;0.40;0.30;;;9.10;1.40;;;9.41;47.55;96390.23;646926;216;31513;-75
2022/01/29 12:01:34;;;;;;;0.50;0.30;;;9.80;1.40;;;9.43;50.06;96378.43;619929;226;32106;-78
2022/01/29 12:04:22;;;;;;;1.20;0.30;;;9.30;1.40;;;9.07;48.89;96380.87;642524;216;31614;-75
2022/01/29 12:07:12;;;;;;;1.00;0.40;;;8.40;1.40;;;8.64;50.92;96374.44;640104;212;31751;-75
2022/01/29 12:09:52;;;;;;;0.90;0.40;;;8.00;1.40;;;7.90;48.39;96375.27;645848;212;31695;-75
2022/01/29 12:12:35;;;;;;;0.60;0.30;;;7.50;1.40;;;7.93;48.97;96361.45;646107;212;31594;-78
2022/01/29 12:15:35;;;;;;;0.70;0.40;;;7.70;1.40;;;8.19;50.78;96360.39;621197;222;33076;-79
2022/01/29 12:18:25;;;;;;;0.80;0.70;;;8.10;1.40;;;8.36;52.11;96355.48;645982;216;32131;-75
2022/01/29 12:21:06;;;;;;;0.40;0.30;;;8.00;1.40;;;8.25;49.91;96347.77;619575;222;32518;-77
2022/01/29 12:23:49;;;;;;;0.62;0.40;;;8.10;1.40;;;8.14;49.73;96345.72;647024;212;32294;-77
2022/01/29 12:26:36;;;;;;;0.60;0.40;;;8.00;1.40;;;8.68;51.37;96344.70;647052;216;31548;-78